sensor_id;sensor_type;location;lat;lon;timestamp;pressure;altitude;pressure_sealevel;temperature;humidity
57056;BME280;42945;51.718;5.324;2023-03-04T00:02:07;102583.22;;;4.53;100.00
57056;BME280;42945;51.718;5.324;2023-03-04T00:11:42;102409.31;;;3.93;100.00
57056;BME280;42945;51.718;5.324;2023-03-04T00:17:31;102361.47;;;3.25;100.00
57056;BME280;42945;51.718;5.324;2023-03-04T00:23:18;102426.88;;;3.80;100.00
57056;BME280;42945;51.718;5.324;2023-03-04T00:29:07;102461.84;;;3.90;100.00
57056;BME280;42945;51.718;5.324;2023-03-04T00:34:54;102408.63;;;3.46;100.00
57056;BME280;42945;51.718;5.324;2023-03-04T00:40:42;102469.72;;;3.79;100.00
57056;BME280;42945;51.718;5.324;2023-03-04T00:46:30;102236.72;;;2.50;100.00
57056;BME280;42945;51.718;5.324;2023-03-04T00:52:18;102297.69;;;3.12;100.00
57056;BME280;42945;51.718;5.324;2023-03-04T00:58:06;102442.63;;;3.74;100.00
57056;BME280;42945;51.718;5.324;2023-03-04T01:03:53;102406.75;;;3.78;100.00
57056;BME280;42945;51.718;5.324;2023-03-04T01:09:42;102552.63;;;4.45;100.00
57056;BME280;42945;51.718;5.324;2023-03-04T01:15:30;102521.13;;;4.37;100.00
57056;BME280;42945;51.718;5.324;2023-03-04T01:21:18;102428.63;;;3.73;100.00
57056;BME280;42945;51.718;5.324;2023-03-04T01:27:06;102448.78;;;3.65;100.00
57056;BME280;42945;51.718;5.324;2023-03-04T01:32:55;102448.81;;;3.61;100.00
57056;BME280;42945;51.718;5.324;2023-03-04T01:38:43;102439.19;;;3.60;100.00
57056;BME280;42945;51.718;5.324;2023-03-04T01:44:31;102972.19;;;4.83;100.00
57056;BME280;42945;51.718;5.324;2023-03-04T01:50:32;102435.66;;;3.65;100.00
57056;BME280;42945;51.718;5.324;2023-03-04T01:56:27;102429.53;;;3.66;100.00
57056;BME280;42945;51.718;5.324;2023-03-04T02:02:15;102254.97;;;2.91;100.00
57056;BME280;42945;51.718;5.324;2023-03-04T02:08:04;102397.22;;;3.55;100.00
57056;BME280;42945;51.718;5.324;2023-03-04T02:13:52;102360.50;;;3.55;100.00
57056;BME280;42945;51.718;5.324;2023-03-04T02:19:53;102341.28;;;3.50;100.00
57056;BME280;42945;51.718;5.324;2023-03-04T02:31:51;102162.59;;;2.17;100.00
57056;BME280;42945;51.718;5.324;2023-03-04T02:37:40;102362.25;;;3.56;100.00
57056;BME280;42945;51.718;5.324;2023-03-04T02:43:28;102380.59;;;3.58;100.00
57056;BME280;42945;51.718;5.324;2023-03-04T02:49:17;102518.66;;;4.09;100.00
57056;BME280;42945;51.718;5.324;2023-03-04T02:55:05;102330.81;;;3.41;100.00
57056;BME280;42945;51.718;5.324;2023-03-04T03:00:53;102350.94;;;3.40;100.00
57056;BME280;42945;51.718;5.324;2023-03-04T03:06:41;102378.03;;;3.41;100.00
57056;BME280;42945;51.718;5.324;2023-03-04T03:16:18;102335.19;;;3.37;100.00
57056;BME280;42945;51.718;5.324;2023-03-04T03:22:05;102335.16;;;3.45;0.00
57056;BME280;42945;51.718;5.324;2023-03-04T03:27:53;102491.53;;;4.07;100.00
57056;BME280;42945;51.718;5.324;2023-03-04T03:33:42;102313.31;;;3.44;100.00
57056;BME280;42945;51.718;5.324;2023-03-04T03:39:30;102346.53;;;3.48;100.00
57056;BME280;42945;51.718;5.324;2023-03-04T03:45:19;102384.16;;;3.40;100.00
57056;BME280;42945;51.718;5.324;2023-03-04T03:51:07;102273.97;;;3.43;100.00
57056;BME280;42945;51.718;5.324;2023-03-04T03:56:55;102378.88;;;3.49;100.00
57056;BME280;42945;51.718;5.324;2023-03-04T04:02:43;102329.06;;;3.46;100.00
57056;BME280;42945;51.718;5.324;2023-03-04T04:08:30;102321.19;;;3.43;100.00
57056;BME280;42945;51.718;5.324;2023-03-04T04:17:56;102365.75;;;3.52;100.00
57056;BME280;42945;51.718;5.324;2023-03-04T04:23:43;102350.84;;;3.59;100.00
57056;BME280;42945;51.718;5.324;2023-03-04T04:29:31;102245.41;;;2.75;100.00
57056;BME280;42945;51.718;5.324;2023-03-04T04:35:18;102378.84;;;3.57;100.00
57056;BME280;42945;51.718;5.324;2023-03-04T04:41:18;102367.50;;;3.48;100.00
57056;BME280;42945;51.718;5.324;2023-03-04T04:47:11;102315.06;;;3.50;100.00
57056;BME280;42945;51.718;5.324;2023-03-04T04:52:59;102418.91;;;4.02;100.00
57056;BME280;42945;51.718;5.324;2023-03-04T04:58:48;102404.22;;;3.50;100.00
57056;BME280;42945;51.718;5.324;2023-03-04T05:04:36;102376.25;;;3.52;100.00
57056;BME280;42945;51.718;5.324;2023-03-04T05:10:24;102372.78;;;3.44;100.00
57056;BME280;42945;51.718;5.324;2023-03-04T05:20:01;102227.97;;;2.63;100.00
57056;BME280;42945;51.718;5.324;2023-03-04T05:25:49;102323.00;;;3.24;100.00
57056;BME280;42945;51.718;5.324;2023-03-04T05:31:37;102335.22;;;3.32;100.00
57056;BME280;42945;51.718;5.324;2023-03-04T05:37:25;102370.13;;;3.48;100.00
57056;BME280;42945;51.718;5.324;2023-03-04T05:43:14;102215.72;;;2.71;100.00
57056;BME280;42945;51.718;5.324;2023-03-04T05:49:02;102272.50;;;2.63;100.00
57056;BME280;42945;51.718;5.324;2023-03-04T05:54:49;102304.81;;;2.64;100.00
57056;BME280;42945;51.718;5.324;2023-03-04T06:00:37;102372.81;;;3.25;100.00
57056;BME280;42945;51.718;5.324;2023-03-04T06:06:24;102345.75;;;3.17;100.00
57056;BME280;42945;51.718;5.324;2023-03-04T06:12:12;102481.97;;;3.85;100.00
57056;BME280;42945;51.718;5.324;2023-03-04T06:18:02;102250.66;;;2.60;100.00
57056;BME280;42945;51.718;5.324;2023-03-04T06:23:49;102378.94;;;3.27;100.00
57056;BME280;42945;51.718;5.324;2023-03-04T06:29:37;102443.63;;;3.27;100.00
57056;BME280;42945;51.718;5.324;2023-03-04T06:35:25;102279.47;;;2.67;100.00
57056;BME280;42945;51.718;5.324;2023-03-04T06:41:13;102376.34;;;3.15;100.00
57056;BME280;42945;51.718;5.324;2023-03-04T06:47:01;102378.13;;;3.16;100.00
57056;BME280;42945;51.718;5.324;2023-03-04T06:52:48;102393.81;;;3.25;100.00
57056;BME280;42945;51.718;5.324;2023-03-04T06:58:37;102526.53;;;3.97;100.00
57056;BME280;42945;51.718;5.324;2023-03-04T07:04:24;102377.13;;;3.54;100.00
57056;BME280;42945;51.718;5.324;2023-03-04T07:10:13;102386.78;;;3.35;100.00
57056;BME280;42945;51.718;5.324;2023-03-04T07:16:01;102391.13;;;3.39;100.00
57056;BME280;42945;51.718;5.324;2023-03-04T07:21:48;101988.75;;;2.63;100.00
57056;BME280;42945;51.718;5.324;2023-03-04T07:27:37;102448.88;;;3.38;100.00
57056;BME280;42945;51.718;5.324;2023-03-04T07:33:26;102262.03;;;2.63;100.00
57056;BME280;42945;51.718;5.324;2023-03-04T07:39:15;102420.88;;;3.37;100.00
57056;BME280;42945;51.718;5.324;2023-03-04T07:45:04;102445.31;;;3.54;100.00
57056;BME280;42945;51.718;5.324;2023-03-04T07:56:57;102416.44;;;3.65;100.00
57056;BME280;42945;51.718;5.324;2023-03-04T08:02:45;102309.13;;;2.92;100.00
57056;BME280;42945;51.718;5.324;2023-03-04T08:08:34;102739.19;;;3.72;100.00
57056;BME280;42945;51.718;5.324;2023-03-04T08:14:23;102463.53;;;3.97;100.00
57056;BME280;42945;51.718;5.324;2023-03-04T08:24:01;102475.66;;;4.30;100.00
57056;BME280;42945;51.718;5.324;2023-03-04T08:29:54;102451.00;;;4.53;100.00
57056;BME280;42945;51.718;5.324;2023-03-04T08:35:41;102434.25;;;4.63;100.00
57056;BME280;42945;51.718;5.324;2023-03-04T08:41:28;102422.03;;;4.62;100.00
57056;BME280;42945;51.718;5.324;2023-03-04T08:47:17;102438.47;;;4.87;100.00
57056;BME280;42945;51.718;5.324;2023-03-04T08:53:04;102412.91;;;5.08;100.00
57056;BME280;42945;51.718;5.324;2023-03-04T08:58:52;102469.69;;;5.26;100.00
57056;BME280;42945;51.718;5.324;2023-03-04T09:04:41;102418.94;;;5.16;100.00
57056;BME280;42945;51.718;5.324;2023-03-04T09:10:30;102494.13;;;6.21;100.00
57056;BME280;42945;51.718;5.324;2023-03-04T09:16:17;102286.06;;;4.81;100.00
57056;BME280;42945;51.718;5.324;2023-03-04T09:22:06;102386.75;;;5.71;100.00
57056;BME280;42945;51.718;5.324;2023-03-04T09:27:55;102538.94;;;6.18;100.00
57056;BME280;42945;51.718;5.324;2023-03-04T09:33:43;102428.25;;;5.46;100.00
57056;BME280;42945;51.718;5.324;2023-03-04T09:39:32;102397.69;;;5.38;100.00
57056;BME280;42945;51.718;5.324;2023-03-04T09:45:22;102301.84;;;6.18;100.00
57056;BME280;42945;51.718;5.324;2023-03-04T10:03:20;101918.56;;;5.53;100.00
57056;BME280;42945;51.718;5.324;2023-03-04T10:09:15;102178.41;;;4.73;100.00
57056;BME280;42945;51.718;5.324;2023-03-04T10:14:50;102344.09;;;6.11;100.00
57056;BME280;42945;51.718;5.324;2023-03-04T10:26:41;102380.63;;;5.71;100.00
57056;BME280;42945;51.718;5.324;2023-03-04T10:32:30;102474.22;;;5.98;100.00
57056;BME280;42945;51.718;5.324;2023-03-04T10:38:20;102274.31;;;5.11;100.00
57056;BME280;42945;51.718;5.324;2023-03-04T10:50:00;102486.78;;;5.71;100.00
57056;BME280;42945;51.718;5.324;2023-03-04T10:55:48;102395.63;;;5.64;100.00
57056;BME280;42945;51.718;5.324;2023-03-04T11:01:37;102395.53;;;5.70;100.00
57056;BME280;42945;51.718;5.324;2023-03-04T11:07:26;102391.56;;;5.36;100.00
57056;BME280;42945;51.718;5.324;2023-03-04T11:13:19;102442.06;;;5.70;100.00
57056;BME280;42945;51.718;5.324;2023-03-04T11:19:13;102407.44;;;6.01;100.00
57056;BME280;42945;51.718;5.324;2023-03-04T11:35:22;102346.63;;;6.18;100.00
57056;BME280;42945;51.718;5.324;2023-03-04T11:41:15;102323.06;;;6.63;100.00
57056;BME280;42945;51.718;5.324;2023-03-04T12:05:33;102306.78;;;6.90;100.00
57056;BME280;42945;51.718;5.324;2023-03-04T12:30:01;102330.09;;;6.64;100.00
57056;BME280;42945;51.718;5.324;2023-03-04T13:06:30;102155.78;;;4.59;100.00
57056;BME280;42945;51.718;5.324;2023-03-04T13:12:23;102137.50;;;4.49;100.00
57056;BME280;42945;51.718;5.324;2023-03-04T13:18:31;102202.66;;;4.94;100.00
57056;BME280;42945;51.718;5.324;2023-03-04T13:24:44;102161.00;;;5.31;100.00
57056;BME280;42945;51.718;5.324;2023-03-04T13:36:28;102237.00;;;6.60;100.00
57056;BME280;42945;51.718;5.324;2023-03-04T13:42:38;102152.31;;;5.81;100.00
57056;BME280;42945;51.718;5.324;2023-03-04T13:48:30;102194.66;;;6.23;100.00
57056;BME280;42945;51.718;5.324;2023-03-04T13:54:29;102260.47;;;5.65;100.00
57056;BME280;42945;51.718;5.324;2023-03-04T14:00:19;102214.41;;;5.97;100.00
57056;BME280;42945;51.718;5.324;2023-03-04T14:12:02;102261.25;;;6.81;100.00
57056;BME280;42945;51.718;5.324;2023-03-04T14:17:56;102210.84;;;6.95;100.00
57056;BME280;42945;51.718;5.324;2023-03-04T14:23:45;102200.00;;;7.10;100.00
57056;BME280;42945;51.718;5.324;2023-03-04T14:30:03;102088.84;;;6.44;100.00
57056;BME280;42945;51.718;5.324;2023-03-04T14:36:00;102833.53;;;8.16;100.00
57056;BME280;42945;51.718;5.324;2023-03-04T14:41:50;102209.84;;;7.02;100.00
57056;BME280;42945;51.718;5.324;2023-03-04T14:47:43;102263.22;;;7.13;100.00
57056;BME280;42945;51.718;5.324;2023-03-04T14:53:34;102167.75;;;6.04;100.00
57056;BME280;42945;51.718;5.324;2023-03-04T14:59:34;102178.16;;;6.11;100.00
57056;BME280;42945;51.718;5.324;2023-03-04T15:11:24;102141.28;;;6.13;100.00
57056;BME280;42945;51.718;5.324;2023-03-04T15:17:35;102186.03;;;6.15;100.00
57056;BME280;42945;51.718;5.324;2023-03-04T15:23:08;102185.09;;;6.17;100.00
57056;BME280;42945;51.718;5.324;2023-03-04T15:29:05;102143.88;;;6.15;100.00
57056;BME280;42945;51.718;5.324;2023-03-04T15:34:59;102178.56;;;5.85;100.00
57056;BME280;42945;51.718;5.324;2023-03-04T15:40:48;102157.13;;;5.54;100.00
57056;BME280;42945;51.718;5.324;2023-03-04T15:46:36;102192.34;;;5.47;100.00
57056;BME280;42945;51.718;5.324;2023-03-04T15:52:24;102194.00;;;5.52;100.00
57056;BME280;42945;51.718;5.324;2023-03-04T15:58:13;102127.34;;;5.50;100.00
57056;BME280;42945;51.718;5.324;2023-03-04T16:04:27;102122.06;;;5.53;100.00
57056;BME280;42945;51.718;5.324;2023-03-04T16:10:26;102163.34;;;5.50;100.00
57056;BME280;42945;51.718;5.324;2023-03-04T16:16:15;101987.44;;;4.72;100.00
57056;BME280;42945;51.718;5.324;2023-03-04T16:22:03;102160.94;;;5.35;100.00
57056;BME280;42945;51.718;5.324;2023-03-04T16:31:39;102199.63;;;5.28;100.00
57056;BME280;42945;51.718;5.324;2023-03-04T16:37:26;102162.78;;;5.29;100.00
57056;BME280;42945;51.718;5.324;2023-03-04T16:43:15;102165.56;;;5.16;100.00
57056;BME280;42945;51.718;5.324;2023-03-04T16:49:03;102076.59;;;4.86;100.00
57056;BME280;42945;51.718;5.324;2023-03-04T16:54:52;102041.50;;;4.24;100.00
57056;BME280;42945;51.718;5.324;2023-03-04T17:00:45;102032.78;;;4.20;100.00
57056;BME280;42945;51.718;5.324;2023-03-04T17:06:34;102070.53;;;4.13;100.00
57056;BME280;42945;51.718;5.324;2023-03-04T17:12:24;102237.22;;;5.33;100.00
57056;BME280;42945;51.718;5.324;2023-03-04T17:18:12;102139.00;;;4.69;100.00
57056;BME280;42945;51.718;5.324;2023-03-04T17:23:59;102048.06;;;3.86;100.00
57056;BME280;42945;51.718;5.324;2023-03-04T17:29:47;101940.34;;;3.14;100.00
57056;BME280;42945;51.718;5.324;2023-03-04T17:35:37;102165.47;;;4.53;100.00
57056;BME280;42945;51.718;5.324;2023-03-04T17:41:27;102133.25;;;4.39;100.00
57056;BME280;42945;51.718;5.324;2023-03-04T17:47:14;102238.53;;;5.00;100.00
57056;BME280;42945;51.718;5.324;2023-03-04T17:53:03;102074.84;;;4.17;100.00
57056;BME280;42945;51.718;5.324;2023-03-04T17:58:52;102321.66;;;5.11;100.00
57056;BME280;42945;51.718;5.324;2023-03-04T18:04:41;102198.75;;;4.54;100.00
57056;BME280;42945;51.718;5.324;2023-03-04T18:10:32;102399.94;;;5.70;100.00
57056;BME280;42945;51.718;5.324;2023-03-04T18:16:20;102046.31;;;3.82;100.00
57056;BME280;42945;51.718;5.324;2023-03-04T18:22:14;102159.44;;;4.47;100.00
57056;BME280;42945;51.718;5.324;2023-03-04T18:28:02;102073.41;;;3.87;100.00
57056;BME280;42945;51.718;5.324;2023-03-04T18:33:52;102212.81;;;4.52;100.00
57056;BME280;42945;51.718;5.324;2023-03-04T18:39:40;102154.94;;;4.55;100.00
57056;BME280;42945;51.718;5.324;2023-03-04T18:45:27;102141.06;;;4.45;100.00
57056;BME280;42945;51.718;5.324;2023-03-04T18:51:16;102173.44;;;4.46;100.00
57056;BME280;42945;51.718;5.324;2023-03-04T18:57:10;102073.50;;;3.78;100.00
57056;BME280;42945;51.718;5.324;2023-03-04T19:03:06;102124.56;;;4.32;100.00
57056;BME280;42945;51.718;5.324;2023-03-04T19:08:54;102008.91;;;3.64;100.00
57056;BME280;42945;51.718;5.324;2023-03-04T19:14:43;102266.59;;;4.99;100.00
57056;BME280;42945;51.718;5.324;2023-03-04T19:20:30;102084.09;;;3.68;100.00
57056;BME280;42945;51.718;5.324;2023-03-04T19:26:18;102159.66;;;4.24;100.00
57056;BME280;42945;51.718;5.324;2023-03-04T19:35:53;102083.19;;;3.68;100.00
57056;BME280;42945;51.718;5.324;2023-03-04T19:41:40;102177.13;;;4.28;100.00
57056;BME280;42945;51.718;5.324;2023-03-04T19:47:29;102037.88;;;3.50;100.00
57056;BME280;42945;51.718;5.324;2023-03-04T19:53:16;102130.94;;;4.08;100.00
57056;BME280;42945;51.718;5.324;2023-03-04T19:59:05;102161.56;;;4.08;100.00
57056;BME280;42945;51.718;5.324;2023-03-04T20:04:54;102146.81;;;3.94;100.00
57056;BME280;42945;51.718;5.324;2023-03-04T20:10:42;102140.56;;;4.08;100.00
57056;BME280;42945;51.718;5.324;2023-03-04T20:16:31;102169.44;;;4.09;100.00
57056;BME280;42945;51.718;5.324;2023-03-04T20:22:20;102121.44;;;3.95;100.00
57056;BME280;42945;51.718;5.324;2023-03-04T20:28:08;102296.75;;;4.61;100.00
57056;BME280;42945;51.718;5.324;2023-03-04T20:37:32;102129.28;;;3.98;100.00
57056;BME280;42945;51.718;5.324;2023-03-04T20:43:22;102045.09;;;3.24;100.00
57056;BME280;42945;51.718;5.324;2023-03-04T20:49:25;102178.34;;;3.91;100.00
57056;BME280;42945;51.718;5.324;2023-03-04T20:55:13;102160.13;;;3.74;100.00
57056;BME280;42945;51.718;5.324;2023-03-04T21:01:02;102367.22;;;5.17;100.00
57056;BME280;42945;51.718;5.324;2023-03-04T21:06:50;102131.25;;;3.74;100.00
57056;BME280;42945;51.718;5.324;2023-03-04T21:12:39;102151.47;;;3.63;100.00
57056;BME280;42945;51.718;5.324;2023-03-04T21:18:28;102133.09;;;3.63;100.00
57056;BME280;42945;51.718;5.324;2023-03-04T21:24:19;102145.41;;;3.55;100.00
57056;BME280;42945;51.718;5.324;2023-03-04T21:30:09;102083.31;;;3.57;100.00
57056;BME280;42945;51.718;5.324;2023-03-04T21:39:46;102201.41;;;3.46;100.00
57056;BME280;42945;51.718;5.324;2023-03-04T21:45:35;102007.00;;;2.81;100.00
57056;BME280;42945;51.718;5.324;2023-03-04T21:51:24;102225.53;;;3.99;100.00
57056;BME280;42945;51.718;5.324;2023-03-04T21:57:11;102084.41;;;3.30;100.00
57056;BME280;42945;51.718;5.324;2023-03-04T22:03:00;102119.34;;;3.27;100.00
57056;BME280;42945;51.718;5.324;2023-03-04T22:08:51;102156.97;;;3.22;100.00
57056;BME280;42945;51.718;5.324;2023-03-04T22:14:39;102116.78;;;3.23;100.00
57056;BME280;42945;51.718;5.324;2023-03-04T22:20:26;102184.94;;;3.26;100.00
57056;BME280;42945;51.718;5.324;2023-03-04T22:26:23;102105.34;;;3.31;100.00
57056;BME280;42945;51.718;5.324;2023-03-04T22:32:17;102111.59;;;3.17;100.00
57056;BME280;42945;51.718;5.324;2023-03-04T22:42:02;101983.66;;;2.41;100.00
57056;BME280;42945;51.718;5.324;2023-03-04T22:47:51;102158.72;;;3.23;100.00
57056;BME280;42945;51.718;5.324;2023-03-04T22:53:38;102103.84;;;2.90;100.00
57056;BME280;42945;51.718;5.324;2023-03-04T22:59:28;101978.41;;;2.40;100.00
57056;BME280;42945;51.718;5.324;2023-03-04T23:05:16;102032.25;;;2.91;100.00
57056;BME280;42945;51.718;5.324;2023-03-04T23:11:10;102053.25;;;2.85;100.00
57056;BME280;42945;51.718;5.324;2023-03-04T23:16:58;102169.94;;;3.49;100.00
57056;BME280;42945;51.718;5.324;2023-03-04T23:22:47;102166.41;;;3.52;100.00
57056;BME280;42945;51.718;5.324;2023-03-04T23:28:50;101873.25;;;1.61;100.00
57056;BME280;42945;51.718;5.324;2023-03-04T23:35:06;102357.47;;;4.30;100.00
57056;BME280;42945;51.718;5.324;2023-03-04T23:37:32;102207.94;;;2.56;100.00
57056;BME280;42945;51.718;5.324;2023-03-04T23:43:21;102152.63;;;3.21;100.00
57056;BME280;42945;51.718;5.324;2023-03-04T23:49:11;102147.63;;;2.70;100.00
57056;BME280;42945;51.718;5.324;2023-03-04T23:55:01;101955.94;;;1.95;100.00
